Portada
METAR-TAF:

METAR-TAF

Aeropuertos :

Aeropuerto Internacional Netaji Subhas Chandra Bose

Calcuta, India

latitud: 22-39N, longitud: 088-27E, altitud: 4 m

Observación

El informe se hizo hace 12 minutos, a las 04:30 UTC
Viento 4 kt del norte-noroeste
Temperatura 31°C
Humedad 59%
Presión 1013 hPa
Visibilidad: 3200 m
calima

METAR: VECC 220430Z 34004KT 3200 HZ NSC 31/22 Q1013 NOSIG

Hora: 10:12 (04:42 UTC)

Pronóstico

El informe se hizo hace 2 horas y 42 minutos, a las 02:00 UTC
Pronóstico válido del 22 a las 03 UTC al 22 a las 12 UTC
Viento 5 kt del norte
Visibilidad: 2600 m
Escasas nubes a una altura de 2000 ft
calima
Evolucionando progresivamente
del 22 a las 04 UTC al 22 a las 06 UTC
Visibilidad: 3500 m
calima

TAF: VECC 220200Z 2203/2212 35005KT 2600 HZ FEW020 BECMG 2204/2206 3500 HZ

Observaciones y pronósticos meteorológicos de más de 4000 aeropuertos (mensajes METAR y TAF).

Los puntos amarillos y rojos representan las estaciones disponibles.

Ponga el ratón en el punto deseado para ver el nombre de la estación.

Haga clic para ver las observaciones y los pronósticos meteorológicos.

Para cambiar el mapa : haga clic en los botones verdes con una cruz de color negro para hacer un zoom, en el botón verde con un guión para alejar o en las flechas verdes para mapas adyacentes.


METAR-TAF: